sensor_id;sensor_type;location;lat;lon;timestamp;P1;durP1;ratioP1;P2;durP2;ratioP2
14732;SDS011;7457;50.960;6.830;2023-08-07T00:00:17;13.63;;;4.07;;
14732;SDS011;7457;50.960;6.830;2023-08-07T00:02:42;11.40;;;3.90;;
14732;SDS011;7457;50.960;6.830;2023-08-07T00:05:08;9.43;;;3.58;;
14732;SDS011;7457;50.960;6.830;2023-08-07T00:07:34;9.40;;;3.85;;
14732;SDS011;7457;50.960;6.830;2023-08-07T00:09:59;17.40;;;4.18;;
14732;SDS011;7457;50.960;6.830;2023-08-07T00:12:26;9.00;;;3.72;;
14732;SDS011;7457;50.960;6.830;2023-08-07T00:14:52;10.80;;;3.40;;
14732;SDS011;7457;50.960;6.830;2023-08-07T00:17:18;14.30;;;3.80;;
14732;SDS011;7457;50.960;6.830;2023-08-07T00:19:43;14.18;;;4.22;;
14732;SDS011;7457;50.960;6.830;2023-08-07T00:22:09;9.05;;;3.20;;
14732;SDS011;7457;50.960;6.830;2023-08-07T00:24:34;9.38;;;4.13;;
14732;SDS011;7457;50.960;6.830;2023-08-07T00:27:00;10.70;;;3.85;;
14732;SDS011;7457;50.960;6.830;2023-08-07T00:29:26;8.68;;;3.80;;
14732;SDS011;7457;50.960;6.830;2023-08-07T00:31:52;10.20;;;3.80;;
14732;SDS011;7457;50.960;6.830;2023-08-07T00:34:17;13.68;;;4.03;;
14732;SDS011;7457;50.960;6.830;2023-08-07T00:36:43;13.35;;;3.80;;
14732;SDS011;7457;50.960;6.830;2023-08-07T00:39:09;8.32;;;3.53;;
14732;SDS011;7457;50.960;6.830;2023-08-07T00:41:34;8.77;;;3.17;;
14732;SDS011;7457;50.960;6.830;2023-08-07T00:44:00;9.45;;;4.30;;
14732;SDS011;7457;50.960;6.830;2023-08-07T00:46:26;12.02;;;4.20;;
14732;SDS011;7457;50.960;6.830;2023-08-07T00:48:53;9.57;;;3.88;;
14732;SDS011;7457;50.960;6.830;2023-08-07T00:51:19;10.65;;;4.05;;
14732;SDS011;7457;50.960;6.830;2023-08-07T00:53:46;11.45;;;4.13;;
14732;SDS011;7457;50.960;6.830;2023-08-07T00:56:13;8.18;;;4.13;;
14732;SDS011;7457;50.960;6.830;2023-08-07T00:58:39;9.85;;;4.22;;
14732;SDS011;7457;50.960;6.830;2023-08-07T01:01:05;15.88;;;4.47;;
14732;SDS011;7457;50.960;6.830;2023-08-07T01:03:31;12.05;;;4.57;;
14732;SDS011;7457;50.960;6.830;2023-08-07T01:05:57;10.43;;;4.22;;
14732;SDS011;7457;50.960;6.830;2023-08-07T01:08:23;8.95;;;4.13;;
14732;SDS011;7457;50.960;6.830;2023-08-07T01:11:00;13.90;;;4.25;;
14732;SDS011;7457;50.960;6.830;2023-08-07T01:13:57;11.30;;;4.25;;
14732;SDS011;7457;50.960;6.830;2023-08-07T01:19:29;10.15;;;4.18;;
14732;SDS011;7457;50.960;6.830;2023-08-07T01:22:04;11.95;;;4.43;;
14732;SDS011;7457;50.960;6.830;2023-08-07T01:24:36;12.52;;;3.83;;
14732;SDS011;7457;50.960;6.830;2023-08-07T01:27:07;12.23;;;4.47;;
14732;SDS011;7457;50.960;6.830;2023-08-07T01:32:53;14.00;;;3.88;;
14732;SDS011;7457;50.960;6.830;2023-08-07T01:35:46;10.57;;;3.65;;
14732;SDS011;7457;50.960;6.830;2023-08-07T01:38:14;8.77;;;3.85;;
14732;SDS011;7457;50.960;6.830;2023-08-07T01:40:41;12.68;;;3.60;;
14732;SDS011;7457;50.960;6.830;2023-08-07T01:43:08;12.55;;;4.63;;
14732;SDS011;7457;50.960;6.830;2023-08-07T01:45:33;8.20;;;4.03;;
14732;SDS011;7457;50.960;6.830;2023-08-07T01:47:59;7.95;;;3.58;;
14732;SDS011;7457;50.960;6.830;2023-08-07T01:50:25;12.80;;;4.20;;
14732;SDS011;7457;50.960;6.830;2023-08-07T01:52:51;15.38;;;3.97;;
14732;SDS011;7457;50.960;6.830;2023-08-07T01:55:17;13.05;;;4.03;;
14732;SDS011;7457;50.960;6.830;2023-08-07T01:57:44;8.95;;;3.38;;
14732;SDS011;7457;50.960;6.830;2023-08-07T02:00:10;10.77;;;4.05;;
14732;SDS011;7457;50.960;6.830;2023-08-07T02:02:36;13.65;;;4.47;;
14732;SDS011;7457;50.960;6.830;2023-08-07T02:05:02;10.55;;;3.72;;
14732;SDS011;7457;50.960;6.830;2023-08-07T02:07:28;7.93;;;3.38;;
14732;SDS011;7457;50.960;6.830;2023-08-07T02:09:54;13.50;;;3.92;;
14732;SDS011;7457;50.960;6.830;2023-08-07T02:12:20;14.70;;;4.18;;
14732;SDS011;7457;50.960;6.830;2023-08-07T02:14:46;12.38;;;3.42;;
14732;SDS011;7457;50.960;6.830;2023-08-07T02:17:11;8.30;;;3.60;;
14732;SDS011;7457;50.960;6.830;2023-08-07T02:19:37;6.97;;;3.00;;
14732;SDS011;7457;50.960;6.830;2023-08-07T02:22:03;13.88;;;3.90;;
14732;SDS011;7457;50.960;6.830;2023-08-07T02:24:29;7.70;;;2.80;;
14732;SDS011;7457;50.960;6.830;2023-08-07T02:26:54;9.48;;;3.97;;
14732;SDS011;7457;50.960;6.830;2023-08-07T02:29:20;13.90;;;3.15;;
14732;SDS011;7457;50.960;6.830;2023-08-07T02:31:45;9.60;;;2.88;;
14732;SDS011;7457;50.960;6.830;2023-08-07T02:34:11;11.93;;;3.47;;
14732;SDS011;7457;50.960;6.830;2023-08-07T02:36:37;8.00;;;3.22;;
14732;SDS011;7457;50.960;6.830;2023-08-07T02:39:03;10.98;;;3.67;;
14732;SDS011;7457;50.960;6.830;2023-08-07T02:41:29;8.10;;;3.58;;
14732;SDS011;7457;50.960;6.830;2023-08-07T02:43:56;6.95;;;3.67;;
14732;SDS011;7457;50.960;6.830;2023-08-07T02:46:22;13.63;;;3.70;;
14732;SDS011;7457;50.960;6.830;2023-08-07T02:48:48;11.60;;;3.88;;
14732;SDS011;7457;50.960;6.830;2023-08-07T02:51:13;15.70;;;4.90;;
14732;SDS011;7457;50.960;6.830;2023-08-07T02:53:39;13.32;;;4.00;;
14732;SDS011;7457;50.960;6.830;2023-08-07T02:56:04;12.93;;;4.60;;
14732;SDS011;7457;50.960;6.830;2023-08-07T02:58:30;12.60;;;4.50;;
14732;SDS011;7457;50.960;6.830;2023-08-07T03:00:56;7.65;;;3.70;;
14732;SDS011;7457;50.960;6.830;2023-08-07T03:03:21;8.35;;;3.47;;
14732;SDS011;7457;50.960;6.830;2023-08-07T03:05:50;10.10;;;3.80;;
14732;SDS011;7457;50.960;6.830;2023-08-07T03:08:16;15.23;;;3.97;;
14732;SDS011;7457;50.960;6.830;2023-08-07T03:10:49;8.20;;;4.32;;
14732;SDS011;7457;50.960;6.830;2023-08-07T03:13:18;9.82;;;3.60;;
14732;SDS011;7457;50.960;6.830;2023-08-07T03:15:44;7.03;;;3.42;;
14732;SDS011;7457;50.960;6.830;2023-08-07T03:18:10;7.65;;;4.82;;
14732;SDS011;7457;50.960;6.830;2023-08-07T03:20:36;13.20;;;4.00;;
14732;SDS011;7457;50.960;6.830;2023-08-07T03:23:02;8.20;;;3.70;;
14732;SDS011;7457;50.960;6.830;2023-08-07T03:25:28;10.80;;;3.90;;
14732;SDS011;7457;50.960;6.830;2023-08-07T03:27:54;10.40;;;4.75;;
14732;SDS011;7457;50.960;6.830;2023-08-07T03:30:19;10.57;;;4.53;;
14732;SDS011;7457;50.960;6.830;2023-08-07T03:32:45;13.98;;;4.65;;
14732;SDS011;7457;50.960;6.830;2023-08-07T03:35:11;12.02;;;3.80;;
14732;SDS011;7457;50.960;6.830;2023-08-07T03:37:36;9.90;;;4.32;;
14732;SDS011;7457;50.960;6.830;2023-08-07T03:40:02;12.82;;;4.05;;
14732;SDS011;7457;50.960;6.830;2023-08-07T03:42:28;13.77;;;3.97;;
14732;SDS011;7457;50.960;6.830;2023-08-07T03:44:54;12.73;;;3.97;;
14732;SDS011;7457;50.960;6.830;2023-08-07T03:47:19;6.88;;;3.60;;
14732;SDS011;7457;50.960;6.830;2023-08-07T03:49:45;10.88;;;4.03;;
14732;SDS011;7457;50.960;6.830;2023-08-07T03:52:11;8.50;;;3.53;;
14732;SDS011;7457;50.960;6.830;2023-08-07T03:54:37;10.95;;;3.92;;
14732;SDS011;7457;50.960;6.830;2023-08-07T03:57:02;8.55;;;3.92;;
14732;SDS011;7457;50.960;6.830;2023-08-07T03:59:28;12.35;;;3.50;;
14732;SDS011;7457;50.960;6.830;2023-08-07T04:01:54;6.75;;;3.20;;
14732;SDS011;7457;50.960;6.830;2023-08-07T04:04:20;5.70;;;3.45;;
14732;SDS011;7457;50.960;6.830;2023-08-07T04:06:45;8.35;;;4.40;;
14732;SDS011;7457;50.960;6.830;2023-08-07T04:09:11;10.93;;;4.28;;
14732;SDS011;7457;50.960;6.830;2023-08-07T04:11:37;11.00;;;4.35;;
14732;SDS011;7457;50.960;6.830;2023-08-07T04:14:02;11.48;;;4.55;;
14732;SDS011;7457;50.960;6.830;2023-08-07T04:16:29;11.82;;;4.78;;
14732;SDS011;7457;50.960;6.830;2023-08-07T04:18:56;11.73;;;4.20;;
14732;SDS011;7457;50.960;6.830;2023-08-07T04:21:22;8.50;;;4.35;;
14732;SDS011;7457;50.960;6.830;2023-08-07T04:23:48;17.17;;;4.85;;
14732;SDS011;7457;50.960;6.830;2023-08-07T04:26:13;7.15;;;3.63;;
14732;SDS011;7457;50.960;6.830;2023-08-07T04:28:39;10.00;;;4.68;;
14732;SDS011;7457;50.960;6.830;2023-08-07T04:31:05;14.15;;;4.80;;
14732;SDS011;7457;50.960;6.830;2023-08-07T04:33:31;9.27;;;4.43;;
14732;SDS011;7457;50.960;6.830;2023-08-07T04:35:57;18.48;;;4.40;;
14732;SDS011;7457;50.960;6.830;2023-08-07T04:38:22;7.65;;;4.70;;
14732;SDS011;7457;50.960;6.830;2023-08-07T04:40:48;7.43;;;3.92;;
14732;SDS011;7457;50.960;6.830;2023-08-07T04:43:15;7.95;;;4.22;;
14732;SDS011;7457;50.960;6.830;2023-08-07T04:45:41;7.57;;;4.15;;
14732;SDS011;7457;50.960;6.830;2023-08-07T04:48:10;10.45;;;5.45;;
14732;SDS011;7457;50.960;6.830;2023-08-07T04:50:36;14.00;;;4.57;;
14732;SDS011;7457;50.960;6.830;2023-08-07T04:53:02;10.57;;;3.63;;
14732;SDS011;7457;50.960;6.830;2023-08-07T04:55:29;8.23;;;3.78;;
14732;SDS011;7457;50.960;6.830;2023-08-07T04:57:55;9.30;;;4.50;;
14732;SDS011;7457;50.960;6.830;2023-08-07T05:00:21;8.45;;;4.22;;
14732;SDS011;7457;50.960;6.830;2023-08-07T05:02:47;10.10;;;4.60;;
14732;SDS011;7457;50.960;6.830;2023-08-07T05:05:13;10.43;;;4.18;;
14732;SDS011;7457;50.960;6.830;2023-08-07T05:07:44;11.70;;;4.15;;
14732;SDS011;7457;50.960;6.830;2023-08-07T05:10:10;12.85;;;3.45;;
14732;SDS011;7457;50.960;6.830;2023-08-07T05:12:35;8.48;;;3.20;;
14732;SDS011;7457;50.960;6.830;2023-08-07T05:15:01;10.00;;;3.45;;
14732;SDS011;7457;50.960;6.830;2023-08-07T05:17:27;8.65;;;3.47;;
14732;SDS011;7457;50.960;6.830;2023-08-07T05:19:52;19.20;;;4.70;;
14732;SDS011;7457;50.960;6.830;2023-08-07T05:22:18;9.27;;;3.40;;
14732;SDS011;7457;50.960;6.830;2023-08-07T05:24:44;7.95;;;3.58;;
14732;SDS011;7457;50.960;6.830;2023-08-07T05:27:10;7.60;;;3.53;;
14732;SDS011;7457;50.960;6.830;2023-08-07T05:29:36;9.65;;;3.25;;
14732;SDS011;7457;50.960;6.830;2023-08-07T05:32:10;7.90;;;3.70;;
14732;SDS011;7457;50.960;6.830;2023-08-07T05:34:37;7.65;;;3.90;;
14732;SDS011;7457;50.960;6.830;2023-08-07T05:37:03;9.80;;;3.70;;
14732;SDS011;7457;50.960;6.830;2023-08-07T05:39:29;5.15;;;2.92;;
14732;SDS011;7457;50.960;6.830;2023-08-07T05:41:55;5.10;;;2.75;;
14732;SDS011;7457;50.960;6.830;2023-08-07T05:44:23;6.20;;;3.20;;
14732;SDS011;7457;50.960;6.830;2023-08-07T05:46:49;14.10;;;3.67;;
14732;SDS011;7457;50.960;6.830;2023-08-07T05:49:15;4.60;;;2.90;;
14732;SDS011;7457;50.960;6.830;2023-08-07T05:51:41;8.52;;;3.05;;
14732;SDS011;7457;50.960;6.830;2023-08-07T05:54:07;9.38;;;3.17;;
14732;SDS011;7457;50.960;6.830;2023-08-07T05:56:32;7.82;;;3.45;;
14732;SDS011;7457;50.960;6.830;2023-08-07T05:58:58;10.10;;;3.13;;
14732;SDS011;7457;50.960;6.830;2023-08-07T06:01:24;7.03;;;3.28;;
14732;SDS011;7457;50.960;6.830;2023-08-07T06:03:55;10.73;;;3.33;;
14732;SDS011;7457;50.960;6.830;2023-08-07T06:06:22;8.27;;;3.03;;
14732;SDS011;7457;50.960;6.830;2023-08-07T06:08:48;11.45;;;3.42;;
14732;SDS011;7457;50.960;6.830;2023-08-07T06:11:13;6.97;;;3.05;;
14732;SDS011;7457;50.960;6.830;2023-08-07T06:13:42;8.30;;;3.08;;
14732;SDS011;7457;50.960;6.830;2023-08-07T06:16:08;10.30;;;3.58;;
14732;SDS011;7457;50.960;6.830;2023-08-07T06:18:34;5.38;;;3.00;;
14732;SDS011;7457;50.960;6.830;2023-08-07T06:21:00;11.85;;;3.33;;
14732;SDS011;7457;50.960;6.830;2023-08-07T06:23:26;6.18;;;3.00;;
14732;SDS011;7457;50.960;6.830;2023-08-07T06:25:52;5.07;;;2.95;;
14732;SDS011;7457;50.960;6.830;2023-08-07T06:28:17;11.07;;;3.97;;
14732;SDS011;7457;50.960;6.830;2023-08-07T06:30:43;8.15;;;3.35;;
14732;SDS011;7457;50.960;6.830;2023-08-07T06:33:08;11.32;;;3.45;;
14732;SDS011;7457;50.960;6.830;2023-08-07T06:35:38;9.98;;;3.75;;
14732;SDS011;7457;50.960;6.830;2023-08-07T06:38:04;7.55;;;3.60;;
14732;SDS011;7457;50.960;6.830;2023-08-07T06:40:30;8.57;;;2.88;;
14732;SDS011;7457;50.960;6.830;2023-08-07T06:42:56;10.00;;;3.90;;
14732;SDS011;7457;50.960;6.830;2023-08-07T06:45:22;10.48;;;3.83;;
14732;SDS011;7457;50.960;6.830;2023-08-07T06:47:47;5.47;;;3.30;;
14732;SDS011;7457;50.960;6.830;2023-08-07T06:50:13;7.88;;;3.22;;
14732;SDS011;7457;50.960;6.830;2023-08-07T06:52:40;6.43;;;3.10;;
14732;SDS011;7457;50.960;6.830;2023-08-07T06:55:05;6.47;;;3.55;;
14732;SDS011;7457;50.960;6.830;2023-08-07T06:57:31;12.77;;;4.15;;
14732;SDS011;7457;50.960;6.830;2023-08-07T06:59:57;9.98;;;4.03;;
14732;SDS011;7457;50.960;6.830;2023-08-07T07:02:23;10.68;;;4.07;;
14732;SDS011;7457;50.960;6.830;2023-08-07T07:04:48;9.20;;;3.65;;
14732;SDS011;7457;50.960;6.830;2023-08-07T07:07:14;9.77;;;3.53;;
14732;SDS011;7457;50.960;6.830;2023-08-07T07:09:40;9.38;;;3.53;;
14732;SDS011;7457;50.960;6.830;2023-08-07T07:12:06;8.85;;;3.92;;
14732;SDS011;7457;50.960;6.830;2023-08-07T07:14:32;9.80;;;3.72;;
14732;SDS011;7457;50.960;6.830;2023-08-07T07:16:58;9.20;;;3.22;;
14732;SDS011;7457;50.960;6.830;2023-08-07T07:19:24;10.50;;;3.47;;
14732;SDS011;7457;50.960;6.830;2023-08-07T07:21:50;11.35;;;4.50;;
14732;SDS011;7457;50.960;6.830;2023-08-07T07:24:16;7.65;;;3.65;;
14732;SDS011;7457;50.960;6.830;2023-08-07T07:26:42;8.30;;;3.63;;
14732;SDS011;7457;50.960;6.830;2023-08-07T07:29:08;6.70;;;3.38;;
14732;SDS011;7457;50.960;6.830;2023-08-07T07:31:34;7.55;;;3.42;;
14732;SDS011;7457;50.960;6.830;2023-08-07T07:34:00;10.93;;;3.92;;
14732;SDS011;7457;50.960;6.830;2023-08-07T07:36:25;12.38;;;3.80;;
14732;SDS011;7457;50.960;6.830;2023-08-07T07:38:51;6.45;;;3.65;;
14732;SDS011;7457;50.960;6.830;2023-08-07T07:41:17;8.77;;;4.13;;
14732;SDS011;7457;50.960;6.830;2023-08-07T07:43:43;11.98;;;4.38;;
14732;SDS011;7457;50.960;6.830;2023-08-07T07:46:09;10.07;;;4.05;;
14732;SDS011;7457;50.960;6.830;2023-08-07T07:48:35;11.10;;;3.88;;
14732;SDS011;7457;50.960;6.830;2023-08-07T07:51:01;7.63;;;3.67;;
14732;SDS011;7457;50.960;6.830;2023-08-07T07:53:28;9.50;;;3.58;;
14732;SDS011;7457;50.960;6.830;2023-08-07T07:55:53;10.30;;;4.55;;
14732;SDS011;7457;50.960;6.830;2023-08-07T07:58:19;9.60;;;3.65;;
14732;SDS011;7457;50.960;6.830;2023-08-07T08:00:46;11.57;;;4.03;;
14732;SDS011;7457;50.960;6.830;2023-08-07T08:03:11;7.82;;;3.88;;
14732;SDS011;7457;50.960;6.830;2023-08-07T08:05:37;11.95;;;4.18;;
14732;SDS011;7457;50.960;6.830;2023-08-07T08:08:05;9.57;;;3.33;;
14732;SDS011;7457;50.960;6.830;2023-08-07T08:10:34;6.85;;;3.13;;
14732;SDS011;7457;50.960;6.830;2023-08-07T08:13:00;10.07;;;3.70;;
14732;SDS011;7457;50.960;6.830;2023-08-07T08:15:28;9.10;;;3.13;;
14732;SDS011;7457;50.960;6.830;2023-08-07T08:17:54;7.47;;;3.47;;
14732;SDS011;7457;50.960;6.830;2023-08-07T08:20:20;8.52;;;3.22;;
14732;SDS011;7457;50.960;6.830;2023-08-07T08:22:46;11.60;;;3.63;;
14732;SDS011;7457;50.960;6.830;2023-08-07T08:25:12;7.40;;;3.25;;
14732;SDS011;7457;50.960;6.830;2023-08-07T08:27:38;9.05;;;3.90;;
14732;SDS011;7457;50.960;6.830;2023-08-07T08:30:04;12.20;;;3.25;;
14732;SDS011;7457;50.960;6.830;2023-08-07T08:32:31;8.43;;;3.28;;
14732;SDS011;7457;50.960;6.830;2023-08-07T08:34:56;9.77;;;3.15;;
14732;SDS011;7457;50.960;6.830;2023-08-07T08:37:22;7.07;;;3.25;;
14732;SDS011;7457;50.960;6.830;2023-08-07T08:39:48;7.75;;;3.45;;
14732;SDS011;7457;50.960;6.830;2023-08-07T08:42:14;6.35;;;2.70;;
14732;SDS011;7457;50.960;6.830;2023-08-07T08:44:53;8.98;;;3.50;;
14732;SDS011;7457;50.960;6.830;2023-08-07T08:47:22;10.30;;;2.95;;
14732;SDS011;7457;50.960;6.830;2023-08-07T08:49:51;7.63;;;3.88;;
14732;SDS011;7457;50.960;6.830;2023-08-07T08:52:31;6.72;;;3.38;;
14732;SDS011;7457;50.960;6.830;2023-08-07T08:54:57;4.93;;;2.90;;
14732;SDS011;7457;50.960;6.830;2023-08-07T08:57:24;6.90;;;2.97;;
14732;SDS011;7457;50.960;6.830;2023-08-07T08:59:51;9.85;;;3.40;;
14732;SDS011;7457;50.960;6.830;2023-08-07T09:02:17;6.15;;;3.00;;
14732;SDS011;7457;50.960;6.830;2023-08-07T09:04:46;6.65;;;3.15;;
14732;SDS011;7457;50.960;6.830;2023-08-07T09:07:13;8.02;;;2.83;;
14732;SDS011;7457;50.960;6.830;2023-08-07T09:09:40;5.88;;;2.70;;
14732;SDS011;7457;50.960;6.830;2023-08-07T09:12:13;7.85;;;3.00;;
14732;SDS011;7457;50.960;6.830;2023-08-07T09:14:53;9.30;;;3.22;;
14732;SDS011;7457;50.960;6.830;2023-08-07T09:17:24;6.13;;;3.28;;
14732;SDS011;7457;50.960;6.830;2023-08-07T09:19:56;10.52;;;2.95;;
14732;SDS011;7457;50.960;6.830;2023-08-07T09:22:23;5.28;;;2.55;;
14732;SDS011;7457;50.960;6.830;2023-08-07T09:24:49;8.55;;;2.97;;
14732;SDS011;7457;50.960;6.830;2023-08-07T09:27:15;9.30;;;2.92;;
14732;SDS011;7457;50.960;6.830;2023-08-07T09:29:43;4.70;;;2.85;;
14732;SDS011;7457;50.960;6.830;2023-08-07T09:32:09;9.82;;;3.40;;
14732;SDS011;7457;50.960;6.830;2023-08-07T09:34:41;6.03;;;3.08;;
14732;SDS011;7457;50.960;6.830;2023-08-07T09:37:10;10.20;;;3.42;;
14732;SDS011;7457;50.960;6.830;2023-08-07T09:39:36;5.07;;;2.90;;
14732;SDS011;7457;50.960;6.830;2023-08-07T09:42:03;9.52;;;3.30;;
14732;SDS011;7457;50.960;6.830;2023-08-07T09:44:38;9.95;;;3.08;;
14732;SDS011;7457;50.960;6.830;2023-08-07T09:47:13;5.00;;;2.90;;
14732;SDS011;7457;50.960;6.830;2023-08-07T09:49:43;8.05;;;3.65;;
14732;SDS011;7457;50.960;6.830;2023-08-07T09:52:10;6.50;;;2.83;;
14732;SDS011;7457;50.960;6.830;2023-08-07T09:54:41;7.35;;;2.80;;
14732;SDS011;7457;50.960;6.830;2023-08-07T09:57:07;6.38;;;2.40;;
14732;SDS011;7457;50.960;6.830;2023-08-07T09:59:33;4.10;;;2.20;;
14732;SDS011;7457;50.960;6.830;2023-08-07T10:02:02;5.90;;;2.65;;
14732;SDS011;7457;50.960;6.830;2023-08-07T10:04:29;7.53;;;2.45;;
14732;SDS011;7457;50.960;6.830;2023-08-07T10:06:56;6.93;;;2.40;;
14732;SDS011;7457;50.960;6.830;2023-08-07T10:09:22;4.57;;;2.42;;
14732;SDS011;7457;50.960;6.830;2023-08-07T10:11:51;8.38;;;2.83;;
14732;SDS011;7457;50.960;6.830;2023-08-07T10:14:17;5.32;;;2.50;;
14732;SDS011;7457;50.960;6.830;2023-08-07T10:16:43;6.15;;;2.10;;
14732;SDS011;7457;50.960;6.830;2023-08-07T10:19:10;7.18;;;2.67;;
14732;SDS011;7457;50.960;6.830;2023-08-07T10:21:39;9.00;;;2.35;;
14732;SDS011;7457;50.960;6.830;2023-08-07T10:24:05;8.50;;;2.92;;
14732;SDS011;7457;50.960;6.830;2023-08-07T10:26:33;6.00;;;2.03;;
14732;SDS011;7457;50.960;6.830;2023-08-07T10:29:00;7.70;;;3.58;;
14732;SDS011;7457;50.960;6.830;2023-08-07T10:31:28;8.13;;;2.30;;
14732;SDS011;7457;50.960;6.830;2023-08-07T10:33:56;4.68;;;2.20;;
14732;SDS011;7457;50.960;6.830;2023-08-07T10:36:22;6.03;;;2.25;;
14732;SDS011;7457;50.960;6.830;2023-08-07T10:38:49;7.65;;;2.53;;
14732;SDS011;7457;50.960;6.830;2023-08-07T10:41:16;4.55;;;2.10;;
14732;SDS011;7457;50.960;6.830;2023-08-07T10:43:45;6.45;;;2.15;;
14732;SDS011;7457;50.960;6.830;2023-08-07T10:46:14;8.32;;;2.10;;
14732;SDS011;7457;50.960;6.830;2023-08-07T10:48:44;8.65;;;2.17;;
14732;SDS011;7457;50.960;6.830;2023-08-07T10:51:14;6.22;;;2.03;;
14732;SDS011;7457;50.960;6.830;2023-08-07T10:53:44;5.38;;;2.00;;
14732;SDS011;7457;50.960;6.830;2023-08-07T10:58:47;6.18;;;2.13;;
14732;SDS011;7457;50.960;6.830;2023-08-07T11:03:58;3.60;;;1.75;;
14732;SDS011;7457;50.960;6.830;2023-08-07T11:06:26;5.28;;;2.33;;
14732;SDS011;7457;50.960;6.830;2023-08-07T11:08:58;6.35;;;2.28;;
14732;SDS011;7457;50.960;6.830;2023-08-07T11:11:24;8.32;;;2.08;;
14732;SDS011;7457;50.960;6.830;2023-08-07T11:13:52;4.82;;;1.92;;
14732;SDS011;7457;50.960;6.830;2023-08-07T11:16:19;4.22;;;1.80;;
14732;SDS011;7457;50.960;6.830;2023-08-07T11:18:47;3.63;;;1.85;;
14732;SDS011;7457;50.960;6.830;2023-08-07T11:21:14;5.80;;;1.98;;
14732;SDS011;7457;50.960;6.830;2023-08-07T11:23:39;10.77;;;2.30;;
14732;SDS011;7457;50.960;6.830;2023-08-07T11:26:07;3.80;;;2.00;;
14732;SDS011;7457;50.960;6.830;2023-08-07T11:28:33;7.65;;;1.88;;
14732;SDS011;7457;50.960;6.830;2023-08-07T11:30:59;4.65;;;1.88;;
14732;SDS011;7457;50.960;6.830;2023-08-07T11:33:26;6.40;;;2.28;;
14732;SDS011;7457;50.960;6.830;2023-08-07T11:35:53;5.90;;;1.85;;
14732;SDS011;7457;50.960;6.830;2023-08-07T11:38:32;7.10;;;2.30;;
14732;SDS011;7457;50.960;6.830;2023-08-07T11:40:59;7.50;;;2.20;;
14732;SDS011;7457;50.960;6.830;2023-08-07T11:43:32;8.10;;;2.65;;
14732;SDS011;7457;50.960;6.830;2023-08-07T11:46:02;5.90;;;1.98;;
14732;SDS011;7457;50.960;6.830;2023-08-07T11:48:33;6.82;;;2.13;;
14732;SDS011;7457;50.960;6.830;2023-08-07T11:51:00;5.78;;;2.05;;
14732;SDS011;7457;50.960;6.830;2023-08-07T11:53:34;7.88;;;2.42;;
14732;SDS011;7457;50.960;6.830;2023-08-07T11:56:04;3.40;;;2.30;;
14732;SDS011;7457;50.960;6.830;2023-08-07T11:58:48;6.18;;;2.22;;
14732;SDS011;7457;50.960;6.830;2023-08-07T12:01:20;5.38;;;2.33;;
14732;SDS011;7457;50.960;6.830;2023-08-07T12:06:36;4.78;;;2.03;;
14732;SDS011;7457;50.960;6.830;2023-08-07T12:09:04;4.65;;;1.80;;
14732;SDS011;7457;50.960;6.830;2023-08-07T12:11:31;3.08;;;1.67;;
14732;SDS011;7457;50.960;6.830;2023-08-07T12:13:59;9.77;;;2.25;;
14732;SDS011;7457;50.960;6.830;2023-08-07T12:16:25;10.50;;;2.40;;
14732;SDS011;7457;50.960;6.830;2023-08-07T12:18:51;5.82;;;2.03;;
14732;SDS011;7457;50.960;6.830;2023-08-07T12:21:18;6.10;;;2.70;;
14732;SDS011;7457;50.960;6.830;2023-08-07T12:23:47;5.40;;;2.60;;
14732;SDS011;7457;50.960;6.830;2023-08-07T12:26:13;7.38;;;2.40;;
14732;SDS011;7457;50.960;6.830;2023-08-07T12:28:39;6.65;;;2.40;;
14732;SDS011;7457;50.960;6.830;2023-08-07T12:31:05;4.53;;;2.42;;
14732;SDS011;7457;50.960;6.830;2023-08-07T12:33:32;6.70;;;2.20;;
14732;SDS011;7457;50.960;6.830;2023-08-07T12:35:58;4.25;;;1.85;;
14732;SDS011;7457;50.960;6.830;2023-08-07T12:38:24;9.52;;;2.47;;
14732;SDS011;7457;50.960;6.830;2023-08-07T12:40:50;4.40;;;1.90;;
14732;SDS011;7457;50.960;6.830;2023-08-07T12:43:16;3.78;;;2.10;;
14732;SDS011;7457;50.960;6.830;2023-08-07T12:45:41;6.93;;;2.25;;
14732;SDS011;7457;50.960;6.830;2023-08-07T12:48:07;6.07;;;2.50;;
14732;SDS011;7457;50.960;6.830;2023-08-07T12:50:33;5.90;;;2.67;;
14732;SDS011;7457;50.960;6.830;2023-08-07T12:52:59;6.82;;;2.65;;
14732;SDS011;7457;50.960;6.830;2023-08-07T12:55:26;3.72;;;2.20;;
14732;SDS011;7457;50.960;6.830;2023-08-07T12:57:52;7.65;;;2.38;;
14732;SDS011;7457;50.960;6.830;2023-08-07T13:00:18;4.30;;;2.53;;
14732;SDS011;7457;50.960;6.830;2023-08-07T13:02:45;3.55;;;2.13;;
14732;SDS011;7457;50.960;6.830;2023-08-07T13:05:12;3.53;;;2.10;;
14732;SDS011;7457;50.960;6.830;2023-08-07T13:07:39;6.22;;;2.30;;
14732;SDS011;7457;50.960;6.830;2023-08-07T13:10:06;6.13;;;1.88;;
14732;SDS011;7457;50.960;6.830;2023-08-07T13:12:34;5.28;;;2.50;;
14732;SDS011;7457;50.960;6.830;2023-08-07T13:15:01;3.22;;;2.00;;
14732;SDS011;7457;50.960;6.830;2023-08-07T13:17:27;8.10;;;3.03;;
14732;SDS011;7457;50.960;6.830;2023-08-07T13:19:54;6.13;;;2.20;;
14732;SDS011;7457;50.960;6.830;2023-08-07T13:22:19;9.20;;;2.97;;
14732;SDS011;7457;50.960;6.830;2023-08-07T13:24:45;6.57;;;2.25;;
14732;SDS011;7457;50.960;6.830;2023-08-07T13:27:10;5.35;;;2.13;;
14732;SDS011;7457;50.960;6.830;2023-08-07T13:29:36;10.73;;;2.92;;
14732;SDS011;7457;50.960;6.830;2023-08-07T13:32:02;8.52;;;2.50;;
14732;SDS011;7457;50.960;6.830;2023-08-07T13:34:34;7.35;;;2.33;;
14732;SDS011;7457;50.960;6.830;2023-08-07T13:37:05;5.78;;;2.50;;
14732;SDS011;7457;50.960;6.830;2023-08-07T13:39:32;6.50;;;3.35;;
14732;SDS011;7457;50.960;6.830;2023-08-07T13:41:58;6.28;;;2.70;;
14732;SDS011;7457;50.960;6.830;2023-08-07T13:44:25;4.63;;;2.13;;
14732;SDS011;7457;50.960;6.830;2023-08-07T13:46:51;7.35;;;2.70;;
14732;SDS011;7457;50.960;6.830;2023-08-07T13:49:16;6.05;;;2.22;;
14732;SDS011;7457;50.960;6.830;2023-08-07T13:51:42;5.32;;;2.50;;
14732;SDS011;7457;50.960;6.830;2023-08-07T13:54:08;4.47;;;2.10;;
14732;SDS011;7457;50.960;6.830;2023-08-07T13:56:34;5.60;;;2.60;;
14732;SDS011;7457;50.960;6.830;2023-08-07T13:59:00;7.53;;;2.13;;
14732;SDS011;7457;50.960;6.830;2023-08-07T14:01:26;6.65;;;2.75;;
14732;SDS011;7457;50.960;6.830;2023-08-07T14:03:53;7.10;;;2.50;;
14732;SDS011;7457;50.960;6.830;2023-08-07T14:06:18;4.72;;;2.20;;
14732;SDS011;7457;50.960;6.830;2023-08-07T14:08:45;4.32;;;2.47;;
14732;SDS011;7457;50.960;6.830;2023-08-07T14:11:11;5.28;;;2.47;;
14732;SDS011;7457;50.960;6.830;2023-08-07T14:13:39;4.18;;;2.67;;
14732;SDS011;7457;50.960;6.830;2023-08-07T14:16:05;5.70;;;2.58;;
14732;SDS011;7457;50.960;6.830;2023-08-07T14:18:31;4.30;;;2.28;;
14732;SDS011;7457;50.960;6.830;2023-08-07T14:20:56;3.67;;;2.58;;
14732;SDS011;7457;50.960;6.830;2023-08-07T14:23:22;5.20;;;3.00;;
14732;SDS011;7457;50.960;6.830;2023-08-07T14:25:48;4.20;;;2.50;;
14732;SDS011;7457;50.960;6.830;2023-08-07T14:28:15;3.97;;;2.72;;
14732;SDS011;7457;50.960;6.830;2023-08-07T14:30:41;3.50;;;2.60;;
14732;SDS011;7457;50.960;6.830;2023-08-07T14:33:07;6.60;;;2.88;;
14732;SDS011;7457;50.960;6.830;2023-08-07T14:35:33;5.22;;;2.33;;
14732;SDS011;7457;50.960;6.830;2023-08-07T14:37:58;5.10;;;2.28;;
14732;SDS011;7457;50.960;6.830;2023-08-07T14:40:24;5.57;;;2.88;;
14732;SDS011;7457;50.960;6.830;2023-08-07T14:42:51;5.70;;;2.80;;
14732;SDS011;7457;50.960;6.830;2023-08-07T14:45:17;5.15;;;2.40;;
14732;SDS011;7457;50.960;6.830;2023-08-07T14:47:43;5.00;;;2.63;;
14732;SDS011;7457;50.960;6.830;2023-08-07T14:50:08;6.63;;;2.38;;
14732;SDS011;7457;50.960;6.830;2023-08-07T14:52:35;4.90;;;3.13;;
14732;SDS011;7457;50.960;6.830;2023-08-07T14:55:01;8.20;;;2.53;;
14732;SDS011;7457;50.960;6.830;2023-08-07T14:57:27;7.90;;;3.75;;
14732;SDS011;7457;50.960;6.830;2023-08-07T14:59:53;5.88;;;2.78;;
14732;SDS011;7457;50.960;6.830;2023-08-07T15:02:18;4.75;;;2.67;;
14732;SDS011;7457;50.960;6.830;2023-08-07T15:04:44;6.50;;;2.42;;
14732;SDS011;7457;50.960;6.830;2023-08-07T15:07:10;5.10;;;2.50;;
14732;SDS011;7457;50.960;6.830;2023-08-07T15:09:35;5.53;;;2.50;;